KGTR/GTR METAR and TAF weather

Enter ICAO airport designator
Station Type Date Time Source
KGTR METAR 2019/02/20 17:33 UTC NOAA

KGTR 201733Z AUTO 14008KT 9SM -RA BKN006 BKN011 OVC020 14/14 A2991 RMK AO2 LTG DSNT E AND SE TSE01 CIG 004V008


Station Type Date Time Source
KGTR Decoded METAR 2019/02/20 17:33 UTC NOAA

Columbus/West Point/Starkville, Golden Triangle Regional Airport, MS, United States (KGTR) 33-27N 088-35W
Feb 20, 2019 - 12:33 PM EST / 2019.02.20 1733 UTC
Wind: from the SE (140 degrees) at 9 MPH (8 KT):0
Visibility: 9 mile(s):0
Sky conditions: overcast
Weather: light rain; Lightning observed
Temperature: 57 F (14 C)
Dew Point: 57 F (14 C)
Relative Humidity: 100%
Pressure (altimeter): 29.91 in. Hg (1012 hPa)
ob: KGTR 201733Z AUTO 14008KT 9SM -RA BKN006 BKN011 OVC020 14/14 A2991 RMK AO2 LTG DSNT E AND SE TSE01 CIG 004V008
cycle: 17

Station Type Date Time Source
KGTR TAF 2019/02/20 18:24 UTC NOAA

TAF KGTR 201720Z 2018/2118 14009KT 3SM -RA BR SCT008 BKN020 OVC045
FM202300 32005KT P6SM OVC007
FM210700 35004KT P6SM OVC015
FM211500 02008KT P6SM OVC015


Example: see airport list